»·PEaware :: N1214 KSAN-KSFO

N1214 :: KSAN-KSFO

FLIGHT INFORMATION

Flight Status: Arrived
Operator: Privately registered:
United States
More flights under this callsign
Pilot: Willard M. (17575)
Aircraft: BOEING 737-900
(B739)
More flights by this aircraft type
Origin: KSAN San Diego Intl-Lindbergh
United States
Destination: KSFO San Francisco Intl
United States
More flights between these airports :: More routes between these airports
Route: +PADRZ1 IKAYE DCT STOKD DCT SERFR SERFR2
File this flight plan on PilotEdge
Remarks:
Altitude:
(Current/Filed)
36,000ft
Speed:
(Current/Filed)
327kts
Departed: 29-Dec-17 04:49 PM
Arrived: 29-Dec-17 06:02 PM
Distance/Time
Traveled:
388nm/1:13
Distance/Time
To Go:
Arrived

Flight Plot

Page will automatically refresh every two minutes.

Flight plan parsing failed; only flown route is shown


Map Options




Map Legend


Flown Route
Filed Route
Departure Airport
Arrival Airport
Navaid (VOR, NDB)
Fix

Horizontal Profiles

Position Reports

Time Latitude Longitude Heading Altitude Ground
Speed
29-Dec-17 16:23 32.732831 -117.201878 99 23ft 0kts
29-Dec-17 16:24 32.732831 -117.201878 99 23ft 0kts
29-Dec-17 16:25 32.732831 -117.201878 99 23ft 0kts
29-Dec-17 16:26 32.732831 -117.201878 99 23ft 0kts
29-Dec-17 16:27 32.732831 -117.201878 99 23ft 0kts
29-Dec-17 16:28 32.732831 -117.201878 99 23ft 0kts
29-Dec-17 16:29 32.732831 -117.201878 99 23ft 0kts
29-Dec-17 16:30 32.732831 -117.201878 99 23ft 0kts
29-Dec-17 16:31 32.732831 -117.201878 99 23ft 0kts
29-Dec-17 16:32 32.732831 -117.201878 99 23ft 0kts
29-Dec-17 16:33 32.732831 -117.201878 99 23ft 0kts
29-Dec-17 16:34 32.732831 -117.201878 99 23ft 0kts
29-Dec-17 16:35 32.732831 -117.201878 99 23ft 0kts
29-Dec-17 16:36 32.732831 -117.201878 99 23ft 0kts
29-Dec-17 16:37 32.732831 -117.201878 99 23ft 0kts
29-Dec-17 16:38 32.732831 -117.201878 99 23ft 0kts
29-Dec-17 16:39 32.732826 -117.202451 70 23ft 0kts
29-Dec-17 16:40 32.732826 -117.202450 70 23ft 0kts
29-Dec-17 16:41 32.732827 -117.202449 70 23ft 0kts
29-Dec-17 16:42 32.732827 -117.202447 70 23ft 0kts
29-Dec-17 16:43 32.733070 -117.202287 337 23ft 10kts
29-Dec-17 16:44 32.735524 -117.202435 1 23ft 6kts
29-Dec-17 16:45 32.735752 -117.203197 280 23ft 0kts
29-Dec-17 16:46 32.735841 -117.203776 281 23ft 6kts
29-Dec-17 16:47 32.736090 -117.204117 341 23ft 3kts
29-Dec-17 16:48 32.736086 -117.202460 174 23ft 14kts
29-Dec-17 16:49 32.734411 -117.197270 105 23ft 15kts
29-Dec-17 16:50 32.733289 -117.192454 105 23ft 15kts
29-Dec-17 16:51 32.732082 -117.187318 104 23ft 16kts
29-Dec-17 16:52 32.730736 -117.181664 105 23ft 16kts
29-Dec-17 16:53 32.729644 -117.177069 105 23ft 8kts
29-Dec-17 16:54 32.730366 -117.176534 290 23ft 11kts
29-Dec-17 16:55 32.739627 -117.212598 293 1324ft 171kts
29-Dec-17 16:56 32.771227 -117.269251 304 3581ft 244kts
29-Dec-17 16:57 32.812651 -117.339230 307 7126ft 277kts
29-Dec-17 16:58 32.861420 -117.414176 307 10764ft 296kts
29-Dec-17 16:59 32.907274 -117.485405 307 12278ft 355kts
29-Dec-17 17:00 32.979902 -117.598401 307 15725ft 377kts
29-Dec-17 17:01 33.044819 -117.699980 307 18377ft 394kts
29-Dec-17 17:02 33.125044 -117.791943 319 20680ft 409kts
29-Dec-17 17:03 33.212739 -117.882265 316 22726ft 422kts
29-Dec-17 17:04 33.282271 -117.965940 314 23201ft 429kts
29-Dec-17 17:05 33.366739 -118.068072 314 25025ft 436kts
29-Dec-17 17:06 33.453565 -118.172528 315 26500ft 446kts
29-Dec-17 17:07 33.542157 -118.278795 314 27757ft 456kts
29-Dec-17 17:08 33.632329 -118.387481 314 29002ft 461kts
29-Dec-17 17:09 33.723240 -118.497458 314 30002ft 467kts
29-Dec-17 17:10 33.814160 -118.607815 314 31325ft 464kts
29-Dec-17 17:11 33.904871 -118.718278 314 32470ft 461kts
29-Dec-17 17:12 33.994824 -118.827894 314 33490ft 459kts
29-Dec-17 17:13 34.083999 -118.937379 314 34391ft 457kts
29-Dec-17 17:14 34.172434 -119.047883 312 35201ft 456kts
29-Dec-17 17:15 34.257630 -119.160924 312 35889ft 455kts
29-Dec-17 17:16 34.343304 -119.274728 312 36136ft 457kts
29-Dec-17 17:17 34.428706 -119.387841 312 36139ft 455kts
29-Dec-17 17:18 34.513984 -119.501123 312 36140ft 455kts
29-Dec-17 17:19 34.599354 -119.615062 312 36141ft 454kts
29-Dec-17 17:20 34.684073 -119.728554 311 36142ft 453kts
29-Dec-17 17:21 34.768643 -119.842237 311 36146ft 452kts
29-Dec-17 17:22 34.852767 -119.955699 311 36152ft 452kts
29-Dec-17 17:23 34.936944 -120.069613 311 36160ft 453kts
29-Dec-17 17:24 35.021408 -120.184300 311 36164ft 455kts
29-Dec-17 17:25 35.105892 -120.299400 311 36167ft 456kts
29-Dec-17 17:26 35.190697 -120.415330 311 36165ft 457kts
29-Dec-17 17:27 35.275385 -120.531413 311 36161ft 458kts
29-Dec-17 17:28 35.360074 -120.647764 311 36162ft 458kts
29-Dec-17 17:29 35.444564 -120.764694 311 36161ft 457kts
29-Dec-17 17:30 35.538148 -120.869630 323 36154ft 457kts
29-Dec-17 17:31 35.639795 -120.963836 323 36122ft 459kts
29-Dec-17 17:32 35.742465 -121.059614 321 36070ft 464kts
29-Dec-17 17:33 35.845158 -121.155275 322 36073ft 466kts
29-Dec-17 17:34 35.948050 -121.251791 321 36065ft 453kts
29-Dec-17 17:35 36.042237 -121.340649 321 36054ft 409kts
29-Dec-17 17:36 36.136077 -121.419132 329 35156ft 412kts
29-Dec-17 17:37 36.238259 -121.497755 328 31548ft 436kts
29-Dec-17 17:38 36.338889 -121.576149 327 29422ft 420kts
29-Dec-17 17:39 36.436249 -121.652648 327 27328ft 406kts
29-Dec-17 17:40 36.530113 -121.726478 327 25325ft 393kts
29-Dec-17 17:41 36.621054 -121.798433 327 23398ft 382kts
29-Dec-17 17:42 36.709674 -121.868859 327 21525ft 372kts
29-Dec-17 17:43 36.804885 -121.912280 347 19692ft 362kts
29-Dec-17 17:44 36.902292 -121.939095 347 17955ft 353kts
29-Dec-17 17:45 36.996063 -121.968973 342 16289ft 344kts
29-Dec-17 17:46 37.082388 -122.003561 342 15683ft 306kts
29-Dec-17 17:47 37.162427 -122.035145 342 14519ft 297kts
29-Dec-17 17:48 37.240545 -122.065885 342 13291ft 292kts
29-Dec-17 17:49 37.317208 -122.096044 342 12130ft 286kts
29-Dec-17 17:50 37.392513 -122.125628 342 10969ft 281kts
29-Dec-17 17:51 37.464772 -122.153973 343 10136ft 265kts
29-Dec-17 17:52 37.531914 -122.175865 329 9625ft 239kts
29-Dec-17 17:53 37.573803 -122.236920 340 8610ft 235kts
29-Dec-17 17:54 37.629436 -122.206928 44 7690ft 229kts
29-Dec-17 17:55 37.673481 -122.152432 44 7113ft 202kts
29-Dec-17 17:56 37.706035 -122.094599 88 6232ft 219kts
29-Dec-17 17:57 37.677783 -122.028765 124 4997ft 203kts
29-Dec-17 17:58 37.647048 -121.973566 136 4971ft 191kts
29-Dec-17 17:59 37.597633 -121.979820 204 4728ft 199kts
29-Dec-17 18:00 37.548213 -122.008060 204 3976ft 185kts
29-Dec-17 18:01 37.512318 -122.049589 261 4000ft 189kts
29-Dec-17 18:02 37.507137 -122.116201 264 3380ft 194kts
29-Dec-17 18:03 37.525834 -122.166525 323 2774ft 155kts
29-Dec-17 18:04 37.550786 -122.212999 297 2547ft 168kts
29-Dec-17 18:05 37.572207 -122.264282 297 1655ft 159kts
29-Dec-17 18:06 37.592620 -122.312884 298 852ft 156kts
29-Dec-17 18:07 37.612990 -122.361411 297 76ft 144kts
29-Dec-17 18:08 37.621694 -122.382229 272 21ft 8kts
29-Dec-17 18:09 37.620465 -122.383389 168 21ft 10kts
29-Dec-17 18:10 37.619563 -122.383728 269 21ft 0kts
29-Dec-17 18:11 37.619563 -122.383730 269 21ft 0kts

Navigation Log

Ident Type
Flight plan parsing failed, navigation log unavailable